DLH7UF EDDP-LOWW
Flight info
| Callsign | DLH7UF |
|---|---|
| Flight time | 0h 46m |
| Altitude | 29000 |
| Route | DRN2Q/08L DRN Z21 OMELO DCT EVIKU DCT BITSI DCT MIKOV MIKOV8W |
| Aircraft | CRJ9/M-SDFGIRWY/S |
Departure
| Time | 2026-05-05 20:38 |
|---|---|
| Airport | Leipzig/Halle Airport (EDDP) |
Arrival
| Time | 2026-05-05 21:25 |
|---|---|
| Airport | Vienna International Airport (LOWW) |
| Time | Latitude | Longitude | Altitude | Speed | Heading |
|---|---|---|---|---|---|
| 2026-05-05 20:09 | 51.41984 | 12.21451 | 433 ft | 0 kts | 15° |
| 2026-05-05 20:34 | 51.42004 | 12.21460 | 432 ft | 8 kts | 15° |
| 2026-05-05 20:34 | 51.42072 | 12.21462 | 427 ft | 12 kts | 326° |
| 2026-05-05 20:35 | 51.42105 | 12.21332 | 426 ft | 15 kts | 288° |
| 2026-05-05 20:35 | 51.42132 | 12.21146 | 426 ft | 20 kts | 285° |
| 2026-05-05 20:35 | 51.42119 | 12.20954 | 426 ft | 20 kts | 202° |
| 2026-05-05 20:35 | 51.41972 | 12.20887 | 425 ft | 24 kts | 195° |
| 2026-05-05 20:36 | 51.41812 | 12.20819 | 425 ft | 23 kts | 195° |
| 2026-05-05 20:36 | 51.41669 | 12.20752 | 427 ft | 20 kts | 197° |
| 2026-05-05 20:36 | 51.41546 | 12.20699 | 428 ft | 17 kts | 192° |
| 2026-05-05 20:36 | 51.41435 | 12.20653 | 432 ft | 17 kts | 195° |
| 2026-05-05 20:37 | 51.41289 | 12.20590 | 439 ft | 25 kts | 195° |
| 2026-05-05 20:37 | 51.41174 | 12.20600 | 426 ft | 16 kts | 124° |
| 2026-05-05 20:37 | 51.41168 | 12.20658 | 428 ft | 0 kts | 84° |
| 2026-05-05 20:37 | 51.41171 | 12.20704 | 423 ft | 22 kts | 84° |
| 2026-05-05 20:38 | 51.41205 | 12.21355 | 449 ft | 96 kts | 86° |
| 2026-05-05 20:38 | 51.41275 | 12.22780 | 460 ft | 157 kts | 85° |
| 2026-05-05 20:38 | 51.41355 | 12.24735 | 783 ft | 186 kts | 86° |
| 2026-05-05 20:38 | 51.41371 | 12.26715 | 1781 ft | 180 kts | 87° |
| 2026-05-05 20:39 | 51.41408 | 12.28763 | 2571 ft | 183 kts | 87° |
| 2026-05-05 20:39 | 51.41408 | 12.30796 | 3468 ft | 183 kts | 84° |
| 2026-05-05 20:39 | 51.41528 | 12.32831 | 4299 ft | 182 kts | 81° |
| 2026-05-05 20:39 | 51.41717 | 12.34848 | 5091 ft | 188 kts | 78° |
| 2026-05-05 20:40 | 51.41944 | 12.37055 | 5514 ft | 214 kts | 81° |
| 2026-05-05 20:40 | 51.42125 | 12.39559 | 5925 ft | 237 kts | 84° |
| 2026-05-05 20:40 | 51.42255 | 12.42275 | 6446 ft | 253 kts | 86° |
| 2026-05-05 20:40 | 51.42378 | 12.45146 | 7021 ft | 266 kts | 86° |
| 2026-05-05 20:41 | 51.42487 | 12.48018 | 7623 ft | 278 kts | 86° |
| 2026-05-05 20:41 | 51.42614 | 12.51063 | 8457 ft | 281 kts | 86° |
| 2026-05-05 20:41 | 51.42755 | 12.54186 | 9290 ft | 286 kts | 87° |
| 2026-05-05 20:41 | 51.42520 | 12.57341 | 10112 ft | 289 kts | 112° |
| 2026-05-05 20:42 | 51.41607 | 12.60219 | 10939 ft | 291 kts | 122° |
| 2026-05-05 20:42 | 51.40513 | 12.62977 | 11705 ft | 295 kts | 125° |
| 2026-05-05 20:42 | 51.39357 | 12.65734 | 12434 ft | 301 kts | 126° |
| 2026-05-05 20:42 | 51.38153 | 12.68610 | 12746 ft | 322 kts | 126° |
| 2026-05-05 20:43 | 51.36909 | 12.71598 | 13103 ft | 339 kts | 126° |
| 2026-05-05 20:43 | 51.35580 | 12.74820 | 13525 ft | 354 kts | 125° |
| 2026-05-05 20:43 | 51.34242 | 12.78155 | 14219 ft | 358 kts | 125° |
| 2026-05-05 20:43 | 51.32894 | 12.81537 | 14920 ft | 362 kts | 125° |
| 2026-05-05 20:44 | 51.31596 | 12.84794 | 15571 ft | 367 kts | 125° |
| 2026-05-05 20:44 | 51.30217 | 12.88265 | 16232 ft | 370 kts | 125° |
| 2026-05-05 20:44 | 51.28822 | 12.91752 | 16876 ft | 374 kts | 125° |
| 2026-05-05 20:44 | 51.27413 | 12.95270 | 17493 ft | 378 kts | 126° |
| 2026-05-05 20:45 | 51.24567 | 13.02357 | 18670 ft | 385 kts | 126° |
| 2026-05-05 20:45 | 51.23116 | 13.05969 | 19234 ft | 388 kts | 126° |
| 2026-05-05 20:45 | 51.21648 | 13.09618 | 19788 ft | 391 kts | 126° |
| 2026-05-05 20:46 | 51.20171 | 13.13281 | 20306 ft | 395 kts | 126° |
| 2026-05-05 20:46 | 51.18679 | 13.16976 | 20830 ft | 397 kts | 126° |
| 2026-05-05 20:46 | 51.17264 | 13.20470 | 21275 ft | 400 kts | 126° |
| 2026-05-05 20:46 | 51.15801 | 13.24132 | 21751 ft | 403 kts | 126° |
| 2026-05-05 20:47 | 51.14309 | 13.27914 | 22192 ft | 406 kts | 126° |
| 2026-05-05 20:47 | 51.12794 | 13.31722 | 22638 ft | 409 kts | 126° |
| 2026-05-05 20:47 | 51.11284 | 13.35502 | 23063 ft | 411 kts | 126° |
| 2026-05-05 20:47 | 51.09738 | 13.39359 | 23470 ft | 414 kts | 126° |
| 2026-05-05 20:48 | 51.08183 | 13.43244 | 23866 ft | 417 kts | 126° |
| 2026-05-05 20:48 | 51.06621 | 13.47150 | 24291 ft | 419 kts | 126° |
| 2026-05-05 20:48 | 51.05048 | 13.51077 | 24645 ft | 422 kts | 126° |
| 2026-05-05 20:48 | 51.03528 | 13.54847 | 24985 ft | 425 kts | 126° |
| 2026-05-05 20:49 | 51.01922 | 13.58825 | 25334 ft | 428 kts | 126° |
| 2026-05-05 20:49 | 51.00323 | 13.62834 | 25650 ft | 431 kts | 125° |
| 2026-05-05 20:49 | 50.98731 | 13.66881 | 25979 ft | 433 kts | 126° |
| 2026-05-05 20:49 | 50.97140 | 13.70882 | 26249 ft | 436 kts | 126° |
| 2026-05-05 20:50 | 50.95512 | 13.74961 | 26564 ft | 438 kts | 126° |
| 2026-05-05 20:50 | 50.93881 | 13.79050 | 26836 ft | 440 kts | 126° |
| 2026-05-05 20:50 | 50.92238 | 13.83006 | 27126 ft | 441 kts | 128° |
| 2026-05-05 20:50 | 50.90398 | 13.86912 | 27383 ft | 442 kts | 131° |
| 2026-05-05 20:51 | 50.88560 | 13.90520 | 27622 ft | 444 kts | 132° |
| 2026-05-05 20:51 | 50.86604 | 13.94345 | 27869 ft | 446 kts | 132° |
| 2026-05-05 20:51 | 50.84656 | 13.98198 | 28138 ft | 447 kts | 131° |
| 2026-05-05 20:51 | 50.82647 | 14.01853 | 28449 ft | 445 kts | 137° |
| 2026-05-05 20:52 | 50.80414 | 14.05245 | 28651 ft | 446 kts | 141° |
| 2026-05-05 20:52 | 50.78038 | 14.08543 | 28737 ft | 452 kts | 142° |
| 2026-05-05 20:52 | 50.73280 | 14.15154 | 28796 ft | 465 kts | 140° |
| 2026-05-05 20:53 | 50.68508 | 14.22046 | 28807 ft | 477 kts | 140° |
| 2026-05-05 20:53 | 50.63675 | 14.28971 | 28809 ft | 485 kts | 140° |
| 2026-05-05 20:54 | 50.58676 | 14.36121 | 28778 ft | 484 kts | 140° |
| 2026-05-05 20:54 | 50.53708 | 14.43204 | 28759 ft | 480 kts | 140° |
| 2026-05-05 20:55 | 50.48821 | 14.50156 | 28758 ft | 482 kts | 140° |
| 2026-05-05 20:55 | 50.43877 | 14.57329 | 28752 ft | 485 kts | 138° |
| 2026-05-05 20:56 | 50.39316 | 14.64388 | 28736 ft | 487 kts | 137° |
| 2026-05-05 20:56 | 50.34482 | 14.71809 | 28729 ft | 484 kts | 138° |
| 2026-05-05 20:57 | 50.29676 | 14.79060 | 28726 ft | 482 kts | 138° |
| 2026-05-05 20:57 | 50.24915 | 14.86229 | 28726 ft | 482 kts | 138° |
| 2026-05-05 20:58 | 50.20081 | 14.93485 | 28726 ft | 481 kts | 138° |
| 2026-05-05 20:58 | 50.15368 | 15.00538 | 28727 ft | 481 kts | 138° |
| 2026-05-05 20:59 | 50.10536 | 15.07747 | 28726 ft | 480 kts | 138° |
| 2026-05-05 20:59 | 50.05700 | 15.14937 | 28734 ft | 481 kts | 138° |
| 2026-05-05 21:00 | 50.00928 | 15.22014 | 28733 ft | 480 kts | 138° |
| 2026-05-05 21:00 | 49.96150 | 15.29085 | 28739 ft | 479 kts | 138° |
| 2026-05-05 21:01 | 49.91393 | 15.36100 | 28744 ft | 479 kts | 137° |
| 2026-05-05 21:01 | 49.86559 | 15.43208 | 28745 ft | 479 kts | 138° |
| 2026-05-05 21:02 | 49.81722 | 15.50307 | 28745 ft | 479 kts | 138° |
| 2026-05-05 21:02 | 49.76988 | 15.57227 | 28750 ft | 479 kts | 138° |
| 2026-05-05 21:03 | 49.72163 | 15.64259 | 28746 ft | 479 kts | 138° |
| 2026-05-05 21:03 | 49.67392 | 15.71191 | 28748 ft | 479 kts | 138° |
| 2026-05-05 21:04 | 49.62534 | 15.78233 | 28755 ft | 479 kts | 138° |
| 2026-05-05 21:04 | 49.57810 | 15.85056 | 28758 ft | 479 kts | 138° |
| 2026-05-05 21:05 | 49.52946 | 15.92077 | 28763 ft | 479 kts | 138° |
| 2026-05-05 21:05 | 49.48102 | 15.99036 | 28762 ft | 479 kts | 138° |
| 2026-05-05 21:06 | 49.43410 | 16.05757 | 28762 ft | 469 kts | 138° |
| 2026-05-05 21:06 | 49.41041 | 16.09150 | 27580 ft | 474 kts | 139° |
| 2026-05-05 21:06 | 49.38653 | 16.12560 | 26926 ft | 463 kts | 138° |
| 2026-05-05 21:07 | 49.36324 | 16.15881 | 26380 ft | 451 kts | 139° |
| 2026-05-05 21:07 | 49.34114 | 16.19033 | 25878 ft | 441 kts | 138° |
| 2026-05-05 21:07 | 49.31874 | 16.22169 | 25366 ft | 430 kts | 143° |
| 2026-05-05 21:07 | 49.29423 | 16.24690 | 24825 ft | 420 kts | 151° |
| 2026-05-05 21:08 | 49.26864 | 16.26793 | 24196 ft | 415 kts | 155° |
| 2026-05-05 21:08 | 49.24265 | 16.28648 | 23568 ft | 410 kts | 157° |
| 2026-05-05 21:08 | 49.21687 | 16.30442 | 22948 ft | 405 kts | 157° |
| 2026-05-05 21:08 | 49.19135 | 16.32240 | 22367 ft | 402 kts | 156° |
| 2026-05-05 21:09 | 49.16638 | 16.34089 | 21923 ft | 395 kts | 156° |
| 2026-05-05 21:09 | 49.14328 | 16.35793 | 21399 ft | 392 kts | 156° |
| 2026-05-05 21:09 | 49.11979 | 16.37516 | 20885 ft | 389 kts | 156° |
| 2026-05-05 21:09 | 49.09547 | 16.39305 | 20360 ft | 385 kts | 156° |
| 2026-05-05 21:10 | 49.07142 | 16.41078 | 19835 ft | 383 kts | 156° |
| 2026-05-05 21:10 | 49.04751 | 16.42834 | 19325 ft | 379 kts | 157° |
| 2026-05-05 21:10 | 49.02383 | 16.44571 | 18816 ft | 377 kts | 156° |
| 2026-05-05 21:10 | 49.00029 | 16.46296 | 18311 ft | 374 kts | 157° |
| 2026-05-05 21:11 | 48.97697 | 16.48009 | 17822 ft | 371 kts | 157° |
| 2026-05-05 21:11 | 48.96128 | 16.49158 | 17475 ft | 369 kts | 157° |
| 2026-05-05 21:11 | 48.93853 | 16.50819 | 17011 ft | 366 kts | 157° |
| 2026-05-05 21:11 | 48.91565 | 16.52495 | 16548 ft | 363 kts | 157° |
| 2026-05-05 21:12 | 48.89351 | 16.54110 | 16094 ft | 361 kts | 157° |
| 2026-05-05 21:12 | 48.87088 | 16.55759 | 15641 ft | 358 kts | 156° |
| 2026-05-05 21:12 | 48.84853 | 16.57393 | 15175 ft | 356 kts | 157° |
| 2026-05-05 21:12 | 48.82628 | 16.59012 | 14711 ft | 353 kts | 157° |
| 2026-05-05 21:13 | 48.80424 | 16.60615 | 14280 ft | 350 kts | 157° |
| 2026-05-05 21:13 | 48.78209 | 16.62125 | 13819 ft | 346 kts | 164° |
| 2026-05-05 21:13 | 48.75865 | 16.62653 | 13334 ft | 339 kts | 181° |
| 2026-05-05 21:13 | 48.73525 | 16.62391 | 12885 ft | 334 kts | 189° |
| 2026-05-05 21:14 | 48.71258 | 16.61688 | 12409 ft | 332 kts | 195° |
| 2026-05-05 21:14 | 48.69048 | 16.60725 | 11910 ft | 329 kts | 198° |
| 2026-05-05 21:14 | 48.66903 | 16.59726 | 11439 ft | 326 kts | 198° |
| 2026-05-05 21:14 | 48.64837 | 16.58755 | 11090 ft | 318 kts | 197° |
| 2026-05-05 21:15 | 48.62771 | 16.57847 | 10888 ft | 300 kts | 197° |
| 2026-05-05 21:15 | 48.60797 | 16.57012 | 10389 ft | 289 kts | 196° |
| 2026-05-05 21:15 | 48.58894 | 16.56206 | 9900 ft | 279 kts | 196° |
| 2026-05-05 21:15 | 48.57068 | 16.55444 | 9414 ft | 272 kts | 196° |
| 2026-05-05 21:16 | 48.55271 | 16.54686 | 8901 ft | 266 kts | 196° |
| 2026-05-05 21:16 | 48.53499 | 16.53946 | 8315 ft | 262 kts | 196° |
| 2026-05-05 21:16 | 48.51755 | 16.53213 | 7751 ft | 258 kts | 196° |
| 2026-05-05 21:16 | 48.50035 | 16.52494 | 7123 ft | 257 kts | 196° |
| 2026-05-05 21:17 | 48.48297 | 16.51762 | 6573 ft | 260 kts | 196° |
| 2026-05-05 21:17 | 48.46550 | 16.51034 | 6049 ft | 260 kts | 196° |
| 2026-05-05 21:17 | 48.44809 | 16.50308 | 5550 ft | 259 kts | 196° |
| 2026-05-05 21:17 | 48.43172 | 16.49609 | 5398 ft | 245 kts | 196° |
| 2026-05-05 21:18 | 48.41570 | 16.48922 | 5254 ft | 233 kts | 196° |
| 2026-05-05 21:18 | 48.40051 | 16.48267 | 5104 ft | 222 kts | 196° |
| 2026-05-05 21:18 | 48.38608 | 16.47759 | 5009 ft | 211 kts | 183° |
| 2026-05-05 21:18 | 48.37179 | 16.48037 | 5006 ft | 199 kts | 174° |
| 2026-05-05 21:19 | 48.35812 | 16.48382 | 5013 ft | 208 kts | 174° |
| 2026-05-05 21:19 | 48.34370 | 16.48739 | 5012 ft | 212 kts | 174° |
| 2026-05-05 21:19 | 48.32905 | 16.49118 | 4791 ft | 216 kts | 173° |
| 2026-05-05 21:19 | 48.31424 | 16.49576 | 4478 ft | 217 kts | 169° |
| 2026-05-05 21:20 | 48.29981 | 16.50157 | 4222 ft | 210 kts | 168° |
| 2026-05-05 21:20 | 48.28637 | 16.50734 | 4084 ft | 189 kts | 168° |
| 2026-05-05 21:20 | 48.27400 | 16.51265 | 3664 ft | 181 kts | 168° |
| 2026-05-05 21:20 | 48.26241 | 16.51751 | 3405 ft | 162 kts | 168° |
| 2026-05-05 21:21 | 48.25252 | 16.52183 | 3293 ft | 130 kts | 168° |
| 2026-05-05 21:21 | 48.24430 | 16.52533 | 3151 ft | 123 kts | 169° |
| 2026-05-05 21:21 | 48.23591 | 16.52882 | 2969 ft | 127 kts | 168° |
| 2026-05-05 21:21 | 48.22725 | 16.53233 | 2786 ft | 130 kts | 168° |
| 2026-05-05 21:22 | 48.21870 | 16.53593 | 2603 ft | 126 kts | 167° |
| 2026-05-05 21:22 | 48.21034 | 16.53964 | 2436 ft | 124 kts | 167° |
| 2026-05-05 21:22 | 48.20225 | 16.54305 | 2304 ft | 126 kts | 166° |
| 2026-05-05 21:22 | 48.19387 | 16.54666 | 2133 ft | 130 kts | 165° |
| 2026-05-05 21:23 | 48.18500 | 16.55046 | 1945 ft | 134 kts | 165° |
| 2026-05-05 21:23 | 48.17596 | 16.55432 | 1770 ft | 136 kts | 164° |
| 2026-05-05 21:23 | 48.16670 | 16.55825 | 1592 ft | 140 kts | 163° |
| 2026-05-05 21:23 | 48.15721 | 16.56236 | 1397 ft | 144 kts | 163° |
| 2026-05-05 21:24 | 48.14748 | 16.56652 | 1199 ft | 146 kts | 164° |
| 2026-05-05 21:24 | 48.13807 | 16.57048 | 983 ft | 129 kts | 164° |
| 2026-05-05 21:24 | 48.12960 | 16.57399 | 813 ft | 130 kts | 165° |
| 2026-05-05 21:24 | 48.12090 | 16.57768 | 657 ft | 128 kts | 163° |
| 2026-05-05 21:25 | 48.11259 | 16.58122 | 617 ft | 109 kts | 164° |
| 2026-05-05 21:25 | 48.10696 | 16.58362 | 612 ft | 63 kts | 164° |
| 2026-05-05 21:25 | 48.10338 | 16.58513 | 609 ft | 49 kts | 164° |
| 2026-05-05 21:25 | 48.10051 | 16.58615 | 607 ft | 38 kts | 176° |
| 2026-05-05 21:26 | 48.09800 | 16.58581 | 622 ft | 35 kts | 192° |
| 2026-05-05 21:26 | 48.09634 | 16.58499 | 617 ft | 21 kts | 244° |
| 2026-05-05 21:26 | 48.09724 | 16.58350 | 616 ft | 24 kts | 348° |
| 2026-05-05 21:26 | 48.09901 | 16.58277 | 612 ft | 28 kts | 344° |
| 2026-05-05 21:27 | 48.10088 | 16.58198 | 613 ft | 28 kts | 344° |
| 2026-05-05 21:27 | 48.10287 | 16.58115 | 620 ft | 30 kts | 344° |
| 2026-05-05 21:27 | 48.10496 | 16.58026 | 619 ft | 33 kts | 344° |
| 2026-05-05 21:27 | 48.10717 | 16.57933 | 615 ft | 33 kts | 344° |
| 2026-05-05 21:28 | 48.10932 | 16.57843 | 619 ft | 31 kts | 344° |
| 2026-05-05 21:28 | 48.11133 | 16.57744 | 611 ft | 30 kts | 322° |
| 2026-05-05 21:28 | 48.11233 | 16.57477 | 611 ft | 30 kts | 295° |
| 2026-05-05 21:28 | 48.11325 | 16.57203 | 620 ft | 29 kts | 296° |
| 2026-05-05 21:29 | 48.11413 | 16.56929 | 609 ft | 29 kts | 295° |
| 2026-05-05 21:29 | 48.11501 | 16.56657 | 607 ft | 29 kts | 296° |
| 2026-05-05 21:29 | 48.11591 | 16.56388 | 612 ft | 29 kts | 295° |
| 2026-05-05 21:29 | 48.11677 | 16.56117 | 616 ft | 29 kts | 295° |
| 2026-05-05 21:30 | 48.11762 | 16.55847 | 614 ft | 29 kts | 297° |
| 2026-05-05 21:30 | 48.11840 | 16.55625 | 607 ft | 24 kts | 295° |
| 2026-05-05 21:30 | 48.11906 | 16.55442 | 607 ft | 10 kts | 335° |
| 2026-05-05 21:30 | 48.11973 | 16.55480 | 607 ft | 16 kts | 27° |
| 2026-05-05 21:31 | 48.12024 | 16.55509 | 607 ft | 2 kts | 341° |
| 2026-05-05 21:31 | 48.12035 | 16.55490 | 611 ft | 4 kts | 299° |
| 2026-05-05 21:31 | 48.12048 | 16.55452 | 607 ft | 3 kts | 295° |
| 2026-05-05 21:31 | 48.12050 | 16.55446 | 615 ft | 0 kts | 295° |